Scotrun, Pennsylvania
Current Conditions -  °F | °C
As of 8:53 PM on Friday 24 Oct 2014 (Local Time) from KMPO Reporting Station
Clear Clear  
Wind Chill: 51°   Ceiling: Unl
Heat Index: 51°   Visibility: 10mi
Dew Point: 35°   Wind: 13mph
Humidity: 54%   Direction: 310°NW
Pressure: 29.87"   Gusts: NA
Location:  41.07°N, 75.32°W
Report Text: KMPO 250053Z AUTO 31011KT 10SM CLR 11/02 A2987 RMK AO2 SLP120 T01060017
Loading
Personal Weather Stations






























Interactive Weather Map
Tropical Storm Tracking
New forecast layout! Learn more

10-Day Weather Forecast

Advertisements
Track Severe Weather on mobile